Time;durP1;ratioP1;P1;durP2;ratioP2;P2;SDS_P1;SDS_P2;PMS_P1;PMS_P2;Temp;Humidity;BMP_temperature;BMP_pressure;BME280_temperature;BME280_humidity;BME280_pressure;Samples;Min_cycle;Max_cycle;Signal;HPM_P1;HPM_P2
2023/12/27 00:01:12;;;;;;;2.60;0.70;;;;;;;6.49;100.00;100341.56;180189;1257;44617;-66
2023/12/27 00:05:25;;;;;;;2.50;0.80;;;;;;;6.39;100.00;100345.36;180085;1257;58416;-64
2023/12/27 00:09:28;;;;;;;2.40;0.90;;;;;;;6.18;100.00;100374.50;180119;1259;45912;-64
2023/12/27 00:13:32;;;;;;;3.40;0.50;;;;;;;6.07;100.00;100399.45;180151;1262;46000;-65
2023/12/27 00:18:07;;;;;;;1.60;0.60;;;;;;;6.00;100.00;100406.76;180087;1259;44084;-66
2023/12/27 00:22:14;;;;;;;1.00;0.40;;;;;;;6.01;100.00;100401.77;180140;1257;45212;-64
2023/12/27 00:26:18;;;;;;;1.40;0.60;;;;;;;5.88;100.00;100404.85;180269;1258;58437;-66
2023/12/27 00:30:21;;;;;;;1.60;0.80;;;;;;;5.78;100.00;100406.12;180213;1257;43746;-65
2023/12/27 00:34:26;;;;;;;0.70;0.40;;;;;;;5.80;100.00;100415.48;180126;1257;45017;-65
2023/12/27 00:38:39;;;;;;;3.30;0.60;;;;;;;5.72;100.00;100412.47;179844;1257;45990;-64
2023/12/27 00:42:42;;;;;;;2.60;1.10;;;;;;;5.76;100.00;100416.60;180083;1257;43913;-65
2023/12/27 00:46:48;;;;;;;3.80;0.90;;;;;;;5.83;100.00;100439.48;180245;1257;58421;-65
2023/12/27 00:50:51;;;;;;;5.80;1.10;;;;;;;5.77;100.00;100452.09;180147;1257;44591;-65
2023/12/27 00:54:54;;;;;;;1.70;0.70;;;;;;;5.72;100.00;100459.80;180223;1258;45951;-65
2023/12/27 00:58:58;;;;;;;2.20;1.10;;;;;;;5.58;100.00;100459.53;180308;1257;46041;-65
2023/12/27 01:03:02;;;;;;;1.40;1.30;;;;;;;5.56;100.00;100471.98;179986;1257;45899;-65
2023/12/27 01:07:05;;;;;;;0.50;0.50;;;;;;;5.52;100.00;100479.61;180284;1257;57962;-65
2023/12/27 01:11:09;;;;;;;1.50;0.50;;;;;;;5.42;100.00;100484.21;180029;1260;43865;-64
2023/12/27 01:15:12;;;;;;;2.50;0.70;;;;;;;5.37;100.00;100488.73;180262;1257;45974;-64
2023/12/27 01:19:22;;;;;;;3.20;1.30;;;;;;;5.30;100.00;100495.58;180098;1257;45936;-65
2023/12/27 01:23:27;;;;;;;1.50;0.80;;;;;;;5.21;100.00;100497.85;180002;1257;45959;-64
2023/12/27 01:27:30;;;;;;;4.10;1.30;;;;;;;5.19;100.00;100511.15;180188;1257;58435;-65
2023/12/27 01:31:33;;;;;;;4.40;1.30;;;;;;;5.09;100.00;100512.94;180138;1257;46060;-65
2023/12/27 01:35:37;;;;;;;4.70;1.80;;;;;;;5.06;100.00;100512.95;180054;1257;45961;-64
2023/12/27 01:39:40;;;;;;;1.80;0.70;;;;;;;5.07;100.00;100520.80;180152;1257;45083;-65
2023/12/27 01:43:43;;;;;;;0.90;0.40;;;;;;;5.05;100.00;100525.64;180202;1257;44955;-67
2023/12/27 01:47:50;;;;;;;2.70;1.10;;;;;;;5.05;100.00;100529.32;180168;1257;59144;-65
2023/12/27 01:51:54;;;;;;;6.80;0.80;;;;;;;5.00;100.00;100541.90;180180;1257;44846;-65
2023/12/27 01:55:57;;;;;;;4.20;1.00;;;;;;;4.90;100.00;100553.51;180157;1257;46002;-64
2023/12/27 02:00:01;;;;;;;4.60;0.60;;;;;;;4.85;100.00;100550.60;179911;1257;45977;-64
2023/12/27 02:04:05;;;;;;;1.20;0.80;;;;;;;4.86;100.00;100555.65;180036;1257;46216;-65
2023/12/27 02:08:23;;;;;;;4.70;1.10;;;;;;;4.76;100.00;100561.30;180151;1257;58357;-66
2023/12/27 02:13:04;;;;;;;10.60;1.50;;;;;;;4.76;100.00;100562.86;180174;1257;43867;-63
2023/12/27 02:17:08;;;;;;;1.20;0.90;;;;;;;4.78;100.00;100568.89;180048;1257;45941;-64
2023/12/27 02:21:12;;;;;;;4.00;1.70;;;;;;;4.84;100.00;100578.09;180204;1260;44895;-64
2023/12/27 02:25:17;;;;;;;2.90;1.30;;;;;;;4.84;100.00;100579.48;180095;1257;45899;-64
2023/12/27 02:29:20;;;;;;;1.60;0.80;;;;;;;4.88;100.00;100582.60;180052;1257;58497;-63
2023/12/27 02:33:25;;;;;;;1.00;0.60;;;;;;;4.86;100.00;100589.40;179888;1257;44852;-64
2023/12/27 02:37:34;;;;;;;4.80;2.30;;;;;;;4.95;100.00;100602.08;180162;1260;45891;-63
2023/12/27 02:41:39;;;;;;;0.30;0.30;;;;;;;4.94;100.00;100602.15;180168;1257;44783;-63
2023/12/27 02:46:08;;;;;;;4.60;1.30;;;;;;;4.96;100.00;100609.45;180251;1257;46125;-63
2023/12/27 02:50:11;;;;;;;5.10;1.40;;;;;;;4.99;100.00;100591.50;180144;1260;59852;-63
2023/12/27 02:54:14;;;;;;;2.80;1.20;;;;;;;5.04;100.00;100594.61;180410;1257;44060;-64
2023/12/27 02:58:19;;;;;;;3.00;1.20;;;;;;;4.98;100.00;100596.84;180309;1261;45976;-63
2023/12/27 03:02:50;;;;;;;2.60;1.30;;;;;;;4.90;100.00;100599.73;180277;1257;44570;-63
2023/12/27 03:06:54;;;;;;;2.50;1.40;;;;;;;4.91;100.00;100605.46;180209;1257;43578;-64
2023/12/27 03:10:57;;;;;;;3.90;1.70;;;;;;;4.90;100.00;100604.99;180100;1260;58102;-64
2023/12/27 03:15:01;;;;;;;5.10;2.10;;;;;;;4.90;100.00;100603.41;180112;1257;45107;-64
2023/12/27 03:19:05;;;;;;;4.40;1.20;;;;;;;4.97;100.00;100603.77;180079;1257;44334;-64
2023/12/27 03:23:11;;;;;;;8.30;0.90;;;;;;;4.97;100.00;100608.11;180232;1257;90493;-63
2023/12/27 03:27:15;;;;;;;1.30;1.10;;;;;;;4.97;100.00;100613.23;180259;1257;45045;-67
2023/12/27 03:31:20;;;;;;;2.60;1.10;;;;;;;4.97;100.00;100627.45;180280;1257;58891;-65
2023/12/27 03:35:23;;;;;;;1.70;1.00;;;;;;;4.96;100.00;100627.02;180309;1257;45032;-64
2023/12/27 03:39:29;;;;;;;2.00;1.10;;;;;;;4.99;100.00;100629.29;180213;1257;43607;-65
2023/12/27 03:43:37;;;;;;;4.30;1.10;;;;;;;4.99;100.00;100630.01;179985;1257;45962;-64
2023/12/27 03:47:42;;;;;;;2.50;0.80;;;;;;;4.95;100.00;100642.52;180193;1257;45031;-63
2023/12/27 03:51:46;;;;;;;2.70;0.70;;;;;;;4.93;100.00;100640.34;180317;1257;59404;-64
2023/12/27 03:55:51;;;;;;;9.80;1.70;;;;;;;4.94;100.00;100640.84;180270;1257;45931;-64
2023/12/27 03:59:54;;;;;;;6.00;3.10;;;;;;;4.88;100.00;100638.83;180185;1257;43857;-64
2023/12/27 04:03:57;;;;;;;3.60;1.10;;;;;;;4.84;100.00;100641.70;180241;1257;46118;-65
2023/12/27 04:08:01;;;;;;;1.10;0.80;;;;;;;4.81;100.00;100650.29;180147;1261;44752;-65
2023/12/27 04:12:09;;;;;;;5.80;1.80;;;;;;;4.80;100.00;100654.89;180023;1260;58571;-65
2023/12/27 04:16:12;;;;;;;5.20;1.50;;;;;;;4.76;100.00;100652.14;180114;1260;45170;-65
2023/12/27 04:20:16;;;;;;;6.70;1.90;;;;;;;4.69;100.00;100661.27;180113;1257;43778;-66
2023/12/27 04:24:19;;;;;;;2.40;1.30;;;;;;;4.64;100.00;100676.98;179965;1260;45850;-65
2023/12/27 04:28:22;;;;;;;1.20;0.80;;;;;;;4.58;100.00;100678.82;180069;1262;46349;-65
2023/12/27 04:32:28;;;;;;;8.80;2.30;;;;;;;4.55;100.00;100684.95;179965;1259;58416;-65
2023/12/27 04:36:32;;;;;;;5.20;2.10;;;;;;;4.49;100.00;100685.77;180229;1259;43730;-64
2023/12/27 04:40:49;;;;;;;3.10;1.30;;;;;;;4.46;100.00;100693.13;179980;1260;45236;-65
2023/12/27 04:44:52;;;;;;;8.00;3.00;;;;;;;4.44;100.00;100703.95;180067;1260;45954;-66
2023/12/27 04:48:56;;;;;;;3.20;2.50;;;;;;;4.40;100.00;100710.46;180206;1260;44751;-66
2023/12/27 04:53:00;;;;;;;5.10;2.40;;;;;;;4.39;100.00;100710.48;180209;1260;58934;-65
2023/12/27 04:57:04;;;;;;;3.10;2.60;;;;;;;4.38;100.00;100719.01;180097;1260;45984;-65
2023/12/27 05:01:07;;;;;;;7.30;3.60;;;;;;;4.36;100.00;100719.62;180322;1260;43570;-66
2023/12/27 05:05:16;;;;;;;4.20;2.30;;;;;;;4.37;100.00;100721.32;179882;1259;43537;-66
2023/12/27 05:09:19;;;;;;;6.00;2.10;;;;;;;4.38;100.00;100728.66;180076;1257;45904;-65
2023/12/27 05:13:23;;;;;;;8.40;3.40;;;;;;;4.34;100.00;100735.17;180218;1258;58398;-67
2023/12/27 05:17:26;;;;;;;6.20;1.90;;;;;;;4.33;100.00;100736.97;180294;1257;43972;-66
2023/12/27 05:21:29;;;;;;;5.60;1.90;;;;;;;4.34;100.00;100745.70;180220;1257;45985;-67
2023/12/27 05:25:33;;;;;;;8.20;2.30;;;;;;;4.32;100.00;100747.38;180154;1257;43600;-67
2023/12/27 05:29:38;;;;;;;8.30;2.50;;;;;;;4.30;100.00;100752.55;180235;1257;44483;-66
2023/12/27 05:33:43;;;;;;;7.20;2.60;;;;;;;4.29;100.00;100762.09;180035;1257;58648;-66
2023/12/27 05:37:48;;;;;;;4.90;1.60;;;;;;;4.26;100.00;100766.61;179959;1257;45211;-66
2023/12/27 05:41:51;;;;;;;12.40;1.50;;;;;;;4.20;100.00;100771.99;180212;1257;45943;-66
2023/12/27 05:45:54;;;;;;;4.80;1.30;;;;;;;4.17;100.00;100776.75;180178;1257;43710;-65
2023/12/27 05:49:58;;;;;;;8.40;1.70;;;;;;;4.13;100.00;100784.06;180162;1257;43534;-65
2023/12/27 05:54:02;;;;;;;8.20;2.50;;;;;;;4.09;100.00;100787.60;180241;1257;58950;-65
2023/12/27 05:58:06;;;;;;;4.90;1.50;;;;;;;4.04;100.00;100783.98;180035;1257;45917;-65
2023/12/27 06:02:11;;;;;;;7.90;2.20;;;;;;;4.00;100.00;100783.27;180198;1257;44667;-62
2023/12/27 06:06:15;;;;;;;7.20;1.50;;;;;;;3.97;100.00;100785.37;180259;1258;46012;-63
2023/12/27 06:10:18;;;;;;;8.90;1.60;;;;;;;3.95;100.00;100788.05;180143;1257;44172;-63
2023/12/27 06:14:22;;;;;;;4.20;1.60;;;;;;;3.91;100.00;100787.91;180247;1257;58917;-62
2023/12/27 06:18:26;;;;;;;5.00;1.90;;;;;;;3.89;100.00;100798.88;180227;1257;45440;-64
2023/12/27 06:22:29;;;;;;;6.10;1.60;;;;;;;3.89;100.00;100805.00;180110;1257;43788;-63
2023/12/27 06:26:32;;;;;;;4.30;1.60;;;;;;;3.84;100.00;100804.88;180255;1257;43735;-62
2023/12/27 06:30:36;;;;;;;6.70;1.50;;;;;;;3.82;100.00;100804.77;180192;1257;43549;-63
2023/12/27 06:34:40;;;;;;;5.80;1.40;;;;;;;3.84;100.00;100813.31;179891;1256;59318;-64
2023/12/27 06:38:46;;;;;;;6.60;1.40;;;;;;;3.81;100.00;100816.25;180036;1261;45419;-64
2023/12/27 06:42:55;;;;;;;10.50;1.60;;;;;;;3.81;100.00;100820.44;180416;1257;43888;-65
2023/12/27 06:46:59;;;;;;;3.30;1.40;;;;;;;3.79;100.00;100825.30;180359;1257;43742;-63
2023/12/27 06:51:21;;;;;;;2.30;2.00;;;;;;;3.76;100.00;100827.89;180203;1257;45846;-64
2023/12/27 06:55:24;;;;;;;4.80;1.50;;;;;;;3.72;100.00;100836.29;180204;1257;58409;-64
2023/12/27 06:59:27;;;;;;;5.40;1.90;;;;;;;3.67;100.00;100848.63;180175;1257;44992;-63
2023/12/27 07:03:31;;;;;;;7.80;2.60;;;;;;;3.63;100.00;100854.25;180113;1260;45901;-65
2023/12/27 07:07:34;;;;;;;4.90;2.10;;;;;;;3.61;100.00;100862.76;180218;1257;45117;-64
2023/12/27 07:11:38;;;;;;;8.60;3.10;;;;;;;3.57;100.00;100864.67;180075;1259;46054;-65
2023/12/27 07:15:42;;;;;;;4.60;2.40;;;;;;;3.56;100.00;100868.21;180381;1261;58426;-65
2023/12/27 07:19:45;;;;;;;7.50;2.20;;;;;;;3.55;100.00;100870.51;180187;1257;45935;-65
2023/12/27 07:23:49;;;;;;;7.80;1.50;;;;;;;3.56;100.00;100873.11;180171;1257;44860;-65
2023/12/27 07:27:53;;;;;;;8.90;2.40;;;;;;;3.60;100.00;100882.09;180151;1257;45891;-66
2023/12/27 07:31:58;;;;;;;3.40;1.30;;;;;;;3.62;100.00;100883.70;180290;1257;44875;-66
2023/12/27 07:36:05;;;;;;;7.10;2.10;;;;;;;3.67;100.00;100891.96;180147;1259;58603;-64
2023/12/27 07:40:10;;;;;;;6.80;1.70;;;;;;;3.70;100.00;100896.38;180096;1257;45868;-65
2023/12/27 07:44:16;;;;;;;5.30;2.50;;;;;;;3.74;100.00;100898.84;180121;1257;45939;-64
2023/12/27 07:48:32;;;;;;;3.20;2.10;;;;;;;3.77;100.00;100896.07;180231;1257;45935;-63
2023/12/27 07:52:37;;;;;;;2.40;1.10;;;;;;;3.80;100.00;100892.77;180115;1257;45170;-63
2023/12/27 07:56:42;;;;;;;3.90;2.10;;;;;;;3.88;100.00;100894.21;180236;1257;58405;-67
2023/12/27 08:00:45;;;;;;;9.50;2.10;;;;;;;3.94;100.00;100902.34;180113;1257;44666;-64
2023/12/27 08:04:49;;;;;;;5.30;1.90;;;;;;;4.05;100.00;100908.36;180098;1257;45939;-64
2023/12/27 08:08:55;;;;;;;4.90;1.90;;;;;;;4.14;100.00;100912.70;180076;1257;45889;-64
2023/12/27 08:13:02;;;;;;;3.80;2.20;;;;;;;4.23;100.00;100920.55;180214;1257;44470;-66
2023/12/27 08:17:07;;;;;;;8.40;2.30;;;;;;;4.34;100.00;100925.86;180256;1257;58681;-65
2023/12/27 08:21:11;;;;;;;8.80;3.10;;;;;;;4.46;100.00;100930.23;180251;1257;46089;-64
2023/12/27 08:25:15;;;;;;;3.20;1.90;;;;;;;4.58;100.00;100938.31;180272;1257;44981;-65
2023/12/27 08:29:19;;;;;;;8.80;2.10;;;;;;;4.68;100.00;100948.21;180177;1257;45944;-64
2023/12/27 08:34:15;;;;;;;8.10;3.00;;;;;;;4.78;100.00;100951.28;180248;1258;44664;-64
2023/12/27 08:38:20;;;;;;;10.90;2.50;;;;;;;4.89;100.00;100961.29;180370;1260;58426;-65
2023/12/27 08:42:23;;;;;;;13.10;2.60;;;;;;;4.99;100.00;100967.48;180196;1257;44788;-65
2023/12/27 08:46:29;;;;;;;5.80;3.40;;;;;;;5.14;100.00;100966.27;180393;1257;43672;-65
2023/12/27 08:50:34;;;;;;;7.30;1.40;;;;;;;5.22;100.00;100965.19;180158;1259;46022;-65
2023/12/27 08:54:39;;;;;;;7.80;1.70;;;;;;;5.30;100.00;100964.46;180218;1257;43968;-65
2023/12/27 08:58:42;;;;;;;13.00;2.20;;;;;;;5.39;100.00;100966.47;180157;1257;58320;-65
2023/12/27 09:02:48;;;;;;;4.50;2.40;;;;;;;5.48;100.00;100965.84;180165;1259;45996;-65
2023/12/27 09:06:53;;;;;;;5.40;3.30;;;;;;;5.61;100.00;100966.63;180421;1257;45984;-65
2023/12/27 09:10:58;;;;;;;12.60;3.30;;;;;;;5.74;100.00;100977.42;180095;1258;45904;-65
2023/12/27 09:15:03;;;;;;;9.70;4.50;;;;;;;5.84;100.00;100983.95;180238;1257;43714;-65
2023/12/27 09:19:07;;;;;;;10.80;3.40;;;;;;;5.94;100.00;100988.94;180052;1257;57643;-65
2023/12/27 09:23:11;;;;;;;8.50;3.40;;;;;;;6.05;100.00;100988.23;180031;1259;46035;-64
2023/12/27 09:27:17;;;;;;;4.40;2.50;;;;;;;6.14;100.00;100989.87;180118;1257;43829;-65
2023/12/27 09:31:25;;;;;;;6.70;2.60;;;;;;;6.25;100.00;100993.38;180203;1257;45980;-64
2023/12/27 09:35:56;;;;;;;11.40;3.10;;;;;;;6.37;99.83;100997.31;180117;1257;44949;-64
2023/12/27 09:40:03;;;;;;;7.00;2.70;;;;;;;6.39;97.77;100994.39;180168;1257;58425;-64
2023/12/27 09:44:07;;;;;;;5.60;2.40;;;;;;;6.47;98.16;100989.04;180160;1257;43587;-65
2023/12/27 09:48:25;;;;;;;10.20;2.20;;;;;;;6.57;98.11;100982.00;180104;1257;43520;-66
2023/12/27 09:52:33;;;;;;;5.50;2.30;;;;;;;6.63;98.18;100975.01;180205;1257;46015;-65
2023/12/27 09:56:37;;;;;;;5.90;2.10;;;;;;;6.65;97.12;100983.14;180103;1257;43511;-65
2023/12/27 10:00:45;;;;;;;3.90;2.80;;;;;;;6.70;96.91;100979.19;180010;1257;58564;-65
2023/12/27 10:04:55;;;;;;;6.80;2.50;;;;;;;6.77;96.13;100968.58;179920;1257;44106;-65
2023/12/27 10:09:00;;;;;;;5.60;3.10;;;;;;;6.77;94.74;100966.66;180228;1257;44785;-65
2023/12/27 10:13:06;;;;;;;11.90;3.00;;;;;;;6.85;95.59;100964.80;180198;1257;44751;-66
2023/12/27 10:17:09;;;;;;;7.30;2.00;;;;;;;6.92;95.62;100965.45;180123;1257;45937;-66
2023/12/27 10:21:18;;;;;;;4.00;2.30;;;;;;;6.96;94.09;100962.76;180112;1257;58536;-66
2023/12/27 10:25:26;;;;;;;15.70;4.00;;;;;;;7.01;94.70;100965.70;180198;1257;45021;-66
2023/12/27 10:30:03;;;;;;;7.90;2.60;;;;;;;7.07;94.55;100964.29;180210;1257;45945;-67
2023/12/27 10:34:08;;;;;;;9.60;2.40;;;;;;;7.15;94.47;100967.03;180209;1258;43687;-67
2023/12/27 10:38:13;;;;;;;10.60;3.50;;;;;;;7.19;93.27;100958.17;180095;1257;45060;-65
2023/12/27 10:42:16;;;;;;;9.70;3.40;;;;;;;7.28;93.40;100958.52;179927;1257;58706;-66
2023/12/27 10:46:26;;;;;;;11.70;2.40;;;;;;;7.31;92.04;100959.77;180044;1257;46128;-66
2023/12/27 10:50:32;;;;;;;8.80;2.70;;;;;;;7.37;92.05;100955.91;180176;1257;45101;-66
2023/12/27 10:54:40;;;;;;;11.50;2.30;;;;;;;7.37;91.43;100953.06;180174;1257;45993;-65
2023/12/27 10:58:45;;;;;;;5.60;2.40;;;;;;;7.40;90.31;100950.25;180124;1260;45987;-65
2023/12/27 11:02:50;;;;;;;7.20;3.10;;;;;;;7.42;90.47;100942.01;180445;1257;58560;-65
2023/12/27 11:06:56;;;;;;;8.00;3.10;;;;;;;7.50;90.64;100950.73;180115;1258;45144;-65
2023/12/27 11:11:04;;;;;;;8.70;3.20;;;;;;;7.51;90.21;100949.77;180178;1257;44090;-65
2023/12/27 11:15:10;;;;;;;7.60;1.70;;;;;;;7.52;90.58;100951.51;180056;1257;44515;-65
2023/12/27 11:19:15;;;;;;;11.20;3.20;;;;;;;7.49;90.11;100949.91;180160;1257;43684;-66
2023/12/27 11:23:20;;;;;;;3.60;2.20;;;;;;;7.45;89.99;100941.48;180209;1257;58671;-67
2023/12/27 11:27:25;;;;;;;6.40;2.00;;;;;;;7.45;89.53;100937.94;180167;1257;44491;-67
2023/12/27 11:31:32;;;;;;;10.90;2.60;;;;;;;7.41;89.76;100931.81;180164;1259;45040;-66
2023/12/27 11:35:37;;;;;;;4.40;2.20;;;;;;;7.43;89.76;100929.96;180156;1257;45996;-66
2023/12/27 11:39:46;;;;;;;13.00;3.00;;;;;;;7.43;88.55;100927.67;180376;1257;44995;-66
2023/12/27 11:43:54;;;;;;;4.70;2.20;;;;;;;7.43;89.43;100929.73;180269;1257;57679;-69
2023/12/27 11:47:57;;;;;;;6.20;1.90;;;;;;;7.41;88.72;100923.87;180303;1257;45913;-67
2023/12/27 11:52:04;;;;;;;13.20;3.00;;;;;;;7.42;89.23;100919.63;180329;1257;44930;-67
2023/12/27 11:56:07;;;;;;;6.50;1.80;;;;;;;7.40;89.13;100914.08;180426;1258;44187;-66
2023/12/27 12:00:13;;;;;;;4.60;2.70;;;;;;;7.40;88.91;100906.64;180167;1258;45497;-66
2023/12/27 12:04:24;;;;;;;2.00;1.20;;;;;;;7.41;89.08;100905.55;180419;1257;58525;-66
2023/12/27 12:09:30;;;;;;;5.90;2.60;;;;;;;7.42;89.45;100910.05;180282;1258;45933;-66
2023/12/27 12:13:39;;;;;;;4.70;2.20;;;;;;;7.48;89.54;100907.59;180405;1259;44862;-66
2023/12/27 12:17:44;;;;;;;6.20;1.80;;;;;;;7.53;89.03;100901.33;180276;1257;45015;-66
2023/12/27 12:21:51;;;;;;;8.00;2.80;;;;;;;7.53;89.74;100890.52;180311;1257;45979;-65
2023/12/27 12:26:01;;;;;;;4.70;2.00;;;;;;;7.54;90.84;100881.65;180690;1257;58861;-67
2023/12/27 12:30:07;;;;;;;4.80;2.50;;;;;;;7.53;88.98;100877.98;180314;1257;46108;-66
2023/12/27 12:34:11;;;;;;;3.50;2.50;;;;;;;7.57;90.22;100878.48;180430;1258;43507;-68
2023/12/27 12:38:15;;;;;;;7.30;2.70;;;;;;;7.61;90.51;100869.95;180153;1257;43789;-66
2023/12/27 12:42:21;;;;;;;7.20;2.20;;;;;;;7.62;89.74;100866.23;180256;1257;44216;-64
2023/12/27 12:46:25;;;;;;;6.20;2.20;;;;;;;7.57;89.76;100862.09;180090;1257;58935;-65
2023/12/27 12:50:37;;;;;;;7.60;2.60;;;;;;;7.52;89.62;100862.88;180192;1257;46044;-66
2023/12/27 12:54:42;;;;;;;8.40;2.60;;;;;;;7.45;89.99;100865.61;180303;1257;45898;-66
2023/12/27 12:58:49;;;;;;;7.00;1.60;;;;;;;7.34;89.73;100861.30;180314;1257;43577;-66
2023/12/27 13:02:54;;;;;;;12.00;2.70;;;;;;;7.24;88.80;100860.64;180254;1261;44408;-66
2023/12/27 13:07:04;;;;;;;7.30;3.10;;;;;;;7.17;88.68;100862.98;180308;1258;58277;-67
2023/12/27 13:11:13;;;;;;;11.40;2.40;;;;;;;7.13;88.79;100861.67;180492;1257;45918;-64
2023/12/27 13:15:19;;;;;;;3.50;2.10;;;;;;;7.05;88.71;100859.13;180418;1257;43767;-64
2023/12/27 13:19:23;;;;;;;8.70;2.20;;;;;;;6.98;88.91;100858.95;180378;1257;45980;-65
2023/12/27 13:23:27;;;;;;;6.00;2.40;;;;;;;7.00;89.21;100859.55;180190;1257;45964;-64
2023/12/27 13:27:31;;;;;;;9.50;2.70;;;;;;;6.98;88.93;100850.64;180061;1257;58451;-65
2023/12/27 13:31:34;;;;;;;8.50;2.50;;;;;;;6.97;88.25;100843.16;180169;1258;43659;-66
2023/12/27 13:35:38;;;;;;;4.70;1.80;;;;;;;6.94;87.80;100837.17;180358;1257;45900;-66
2023/12/27 13:39:42;;;;;;;5.80;1.70;;;;;;;6.91;87.73;100834.16;180138;1257;46149;-66
2023/12/27 13:43:46;;;;;;;6.60;1.60;;;;;;;6.87;87.73;100828.73;180173;1260;45981;-67
2023/12/27 13:47:57;;;;;;;4.50;2.50;;;;;;;6.85;87.80;100825.50;180224;1257;58330;-66
2023/12/27 13:52:01;;;;;;;25.40;4.00;;;;;;;6.84;87.12;100824.32;180373;1257;44010;-65
2023/12/27 13:56:06;;;;;;;27.30;15.30;;;;;;;6.76;86.27;100824.95;180160;1257;45862;-66
2023/12/27 14:00:10;;;;;;;104.30;63.10;;;;;;;6.66;86.14;100819.34;180123;1261;45824;-66
2023/12/27 14:04:19;;;;;;;72.40;50.20;;;;;;;6.62;85.81;100816.07;180423;1258;45871;-66
2023/12/27 14:08:23;;;;;;;69.80;42.00;;;;;;;6.58;85.25;100810.63;180062;1258;58669;-66
2023/12/27 14:12:28;;;;;;;58.20;38.20;;;;;;;6.52;85.31;100801.96;180091;1258;43664;-66
2023/12/27 14:16:33;;;;;;;52.00;31.60;;;;;;;6.44;84.48;100792.59;180330;1259;43903;-66
2023/12/27 14:20:38;;;;;;;55.20;37.50;;;;;;;6.33;84.95;100793.17;180158;1257;46022;-66
2023/12/27 14:24:42;;;;;;;100.60;58.40;;;;;;;6.28;85.34;100787.29;180515;1257;43766;-65
2023/12/27 14:29:11;;;;;;;25.70;13.20;;;;;;;6.23;86.12;100785.27;180285;1257;58565;-65
2023/12/27 14:33:14;;;;;;;9.50;5.40;;;;;;;6.14;86.98;100784.36;180539;1260;45918;-65
2023/12/27 14:37:18;;;;;;;11.30;5.30;;;;;;;6.06;86.77;100786.91;180080;1257;43744;-65
2023/12/27 14:41:22;;;;;;;18.10;7.80;;;;;;;5.92;86.70;100786.03;179989;1257;43571;-65
2023/12/27 14:45:26;;;;;;;29.20;12.60;;;;;;;5.64;88.36;100780.11;180081;1260;43850;-65
2023/12/27 14:49:29;;;;;;;12.30;9.30;;;;;;;5.37;90.40;100778.20;179997;1260;60102;-65
2023/12/27 14:53:33;;;;;;;29.60;18.80;;;;;;;5.26;91.36;100781.20;180493;1259;43797;-65
2023/12/27 14:57:37;;;;;;;50.80;26.40;;;;;;;5.03;93.48;100777.80;180482;1257;44090;-65
2023/12/27 15:01:40;;;;;;;72.00;39.60;;;;;;;4.71;95.98;100788.54;180218;1259;44870;-65
2023/12/27 15:05:43;;;;;;;83.70;43.70;;;;;;;4.52;95.79;100791.01;180120;1258;44926;-65
2023/12/27 15:09:47;;;;;;;106.90;63.40;;;;;;;4.44;96.19;100786.84;180287;1258;58914;-65
2023/12/27 15:13:51;;;;;;;140.50;74.20;;;;;;;4.36;98.07;100786.88;180299;1257;43562;-65
2023/12/27 15:17:56;;;;;;;29.70;15.60;;;;;;;4.16;99.96;100786.77;180039;1262;43693;-65
2023/12/27 15:22:02;;;;;;;29.70;15.60;;;;;;;4.00;100.00;100782.58;172368;1259;10171588;-65
2023/12/27 15:26:06;;;;;;;47.50;21.80;;;;;;;3.92;100.00;100780.67;180244;1258;44695;-65
2023/12/27 15:30:14;;;;;;;29.20;17.00;;;;;;;3.84;100.00;100784.54;180086;1261;44989;-64
2023/12/27 15:34:19;;;;;;;22.50;12.90;;;;;;;3.82;100.00;100787.75;180186;1257;45437;-64
2023/12/27 15:38:22;;;;;;;114.10;52.60;;;;;;;3.83;100.00;100791.39;180227;1258;57228;-65
2023/12/27 15:42:27;;;;;;;378.40;181.80;;;;;;;3.77;100.00;100788.51;180185;1257;46611;-64
2023/12/27 15:46:31;;;;;;;211.60;111.30;;;;;;;3.71;100.00;100786.14;180115;1260;45031;-65
2023/12/27 15:50:36;;;;;;;104.50;58.10;;;;;;;3.66;100.00;100792.00;180080;1257;43928;-65
2023/12/27 15:54:40;;;;;;;61.20;30.40;;;;;;;3.55;100.00;100795.47;180002;1260;45967;-65
2023/12/27 15:58:44;;;;;;;52.20;25.80;;;;;;;3.49;100.00;100793.08;180096;1260;58447;-65
2023/12/27 16:02:48;;;;;;;63.30;32.20;;;;;;;3.47;100.00;100791.43;180202;1257;45075;-65
2023/12/27 16:06:54;;;;;;;57.50;31.70;;;;;;;3.46;100.00;100787.27;180104;1260;43742;-65
2023/12/27 16:10:59;;;;;;;68.30;39.00;;;;;;;3.54;100.00;100787.80;179993;1257;44533;-65
2023/12/27 16:15:03;;;;;;;60.40;32.40;;;;;;;3.68;100.00;100790.14;180176;1257;45865;-64
2023/12/27 16:19:07;;;;;;;74.70;38.40;;;;;;;3.81;100.00;100787.09;180052;1257;58733;-66
2023/12/27 16:23:11;;;;;;;879.20;502.00;;;;;;;3.83;100.00;100788.79;180002;1257;44802;-66
2023/12/27 16:27:15;;;;;;;530.30;271.60;;;;;;;3.91;100.00;100795.45;180090;1258;44742;-65
2023/12/27 16:31:21;;;;;;;285.30;134.20;;;;;;;4.01;100.00;100787.44;180102;1259;45847;-65
2023/12/27 16:35:25;;;;;;;73.40;40.80;;;;;;;4.07;100.00;100777.52;180192;1257;43684;-66
2023/12/27 16:39:28;;;;;;;43.70;23.90;;;;;;;4.13;100.00;100778.09;180372;1257;58425;-65
2023/12/27 16:43:37;;;;;;;31.50;16.20;;;;;;;4.24;100.00;100776.73;180007;1257;44654;-65
2023/12/27 16:47:54;;;;;;;26.30;17.30;;;;;;;4.34;99.96;100775.55;180147;1258;45926;-65
2023/12/27 16:51:58;;;;;;;25.50;13.60;;;;;;;4.42;99.97;100774.99;180267;1257;44146;-66
2023/12/27 16:56:02;;;;;;;25.30;13.70;;;;;;;4.48;99.98;100780.00;180184;1258;44995;-66
2023/12/27 17:00:13;;;;;;;24.00;13.10;;;;;;;4.52;100.00;100768.39;180138;1257;58438;-65
2023/12/27 17:04:17;;;;;;;24.50;12.80;;;;;;;4.53;100.00;100751.28;180342;1257;45957;-65
2023/12/27 17:08:25;;;;;;;30.10;19.10;;;;;;;4.51;100.00;100738.05;180179;1257;45894;-65
2023/12/27 17:12:29;;;;;;;44.90;20.90;;;;;;;4.46;100.00;100724.23;180247;1258;44595;-65
2023/12/27 17:16:32;;;;;;;31.00;18.60;;;;;;;4.44;100.00;100721.31;180253;1257;43556;-65
2023/12/27 17:20:36;;;;;;;36.40;17.50;;;;;;;4.52;100.00;100714.60;180098;1260;57953;-65
2023/12/27 17:24:40;;;;;;;29.90;15.80;;;;;;;4.53;100.00;100715.12;180120;1257;44131;-65
2023/12/27 17:28:44;;;;;;;44.20;21.80;;;;;;;4.55;100.00;100709.02;180250;1258;45925;-65
2023/12/27 17:32:47;;;;;;;81.00;37.70;;;;;;;4.48;100.00;100698.63;180090;1258;46173;-65
2023/12/27 17:36:58;;;;;;;75.20;37.80;;;;;;;4.37;100.00;100684.95;180226;1257;45016;-65
2023/12/27 17:41:01;;;;;;;70.40;35.00;;;;;;;4.32;100.00;100671.52;180194;1257;57070;-66
2023/12/27 17:45:10;;;;;;;62.70;35.80;;;;;;;4.39;100.00;100671.34;180143;1257;46189;-65
2023/12/27 17:49:15;;;;;;;55.70;33.00;;;;;;;4.49;100.00;100667.69;180261;1257;43664;-65
2023/12/27 17:53:21;;;;;;;48.30;30.60;;;;;;;4.58;100.00;100662.70;180090;1257;43603;-66
2023/12/27 17:57:25;;;;;;;63.10;32.20;;;;;;;4.59;100.00;100658.59;180081;1260;44026;-66
2023/12/27 18:01:30;;;;;;;52.00;28.30;;;;;;;4.61;100.00;100662.03;180209;1258;60544;-66
2023/12/27 18:05:35;;;;;;;61.10;30.70;;;;;;;4.59;100.00;100657.21;180235;1257;45237;-65
2023/12/27 18:09:43;;;;;;;51.80;28.70;;;;;;;4.51;100.00;100645.98;180125;1257;44303;-65
2023/12/27 18:13:50;;;;;;;189.10;111.30;;;;;;;4.44;100.00;100641.09;180085;1257;46085;-65
2023/12/27 18:17:53;;;;;;;307.20;171.00;;;;;;;4.47;100.00;100631.25;180036;1259;45943;-66
2023/12/27 18:21:58;;;;;;;94.60;42.10;;;;;;;4.48;100.00;100617.86;179986;1257;59638;-65
2023/12/27 18:26:06;;;;;;;87.00;42.50;;;;;;;4.39;100.00;100603.21;180274;1258;44903;-65
2023/12/27 18:30:10;;;;;;;47.90;23.30;;;;;;;4.40;100.00;100602.29;180063;1257;44774;-65
2023/12/27 18:34:14;;;;;;;31.50;20.50;;;;;;;4.47;100.00;100593.86;180223;1257;44816;-64
2023/12/27 18:38:21;;;;;;;36.00;21.40;;;;;;;4.54;100.00;100582.44;180060;1257;43573;-63
2023/12/27 18:42:25;;;;;;;58.50;30.20;;;;;;;4.59;100.00;100578.64;180007;1260;58444;-65
2023/12/27 18:46:31;;;;;;;96.30;48.90;;;;;;;4.57;100.00;100575.22;180106;1262;46104;-63